createdAt,value
2023-03-03T00:00:40.460Z,125
2023-03-03T00:15:37.119Z,128.7
2023-03-03T00:30:37.836Z,119.1
2023-03-03T00:45:47.696Z,126.4
2023-03-03T01:00:38.265Z,129.7
2023-03-03T01:15:39.453Z,123.2
2023-03-03T01:30:40.843Z,117.7
2023-03-03T01:45:40.394Z,108.4
2023-03-03T02:00:41.000Z,108.9
2023-03-03T02:01:29.751Z,106.2
2023-03-03T02:15:41.883Z,102.8
2023-03-03T02:30:52.039Z,105
2023-03-03T02:45:50.167Z,85.9
2023-03-03T03:00:51.645Z,85.2
2023-03-03T03:15:50.726Z,88.9
2023-03-03T03:30:51.373Z,82.6
2023-03-03T03:45:50.071Z,88.4
2023-03-03T04:00:53.147Z,92.2
2023-03-03T04:15:51.810Z,88.9
2023-03-03T04:30:52.524Z,78.8
2023-03-03T04:45:51.814Z,87.3
2023-03-03T05:00:53.738Z,64.2
2023-03-03T05:15:52.477Z,52.2
2023-03-03T05:30:57.234Z,68.2
2023-03-03T05:45:53.766Z,59.8
2023-03-03T05:52:52.477Z,59.2
2023-03-03T06:07:53.085Z,53.3
2023-03-03T06:22:52.317Z,46.1
2023-03-03T06:37:52.476Z,41.8
2023-03-03T06:52:56.574Z,51.6
2023-03-03T07:07:55.113Z,39.8
2023-03-03T07:22:55.638Z,55.6
2023-03-03T07:37:55.618Z,46.2
2023-03-03T07:52:59.114Z,89.8
2023-03-03T08:07:56.869Z,135.9
2023-03-03T08:22:57.497Z,138.4
2023-03-03T08:37:58.310Z,130.8
2023-03-03T08:52:58.694Z,105.5
2023-03-03T09:07:59.561Z,102.6
2023-03-03T09:23:00.110Z,116
2023-03-03T09:38:03.362Z,117.4
2023-03-03T09:53:00.898Z,108
2023-03-03T10:08:02.095Z,115.4
2023-03-03T10:23:02.086Z,107.5
2023-03-03T10:38:02.781Z,93.2
2023-03-03T10:53:04.044Z,90.4
2023-03-03T11:08:06.703Z,91.7
2023-03-03T11:23:04.300Z,96.8
2023-03-03T11:38:05.976Z,97.3
2023-03-03T11:53:07.580Z,97.9
2023-03-03T12:08:09.416Z,104.7
2023-03-03T12:23:08.695Z,112
2023-03-03T12:38:11.021Z,110.3
2023-03-03T12:53:10.388Z,97.9
2023-03-03T13:08:10.009Z,99.1
2023-03-03T13:23:10.268Z,90.2
2023-03-03T13:38:19.173Z,87.4
2023-03-03T13:53:37.415Z,92.2
2023-03-03T14:08:12.508Z,99.4
2023-03-03T14:23:12.394Z,102
2023-03-03T14:38:13.271Z,114.5
2023-03-03T14:53:25.916Z,113.9
2023-03-03T15:08:15.676Z,101.5
2023-03-03T15:23:15.607Z,101.6
2023-03-03T15:38:52.948Z,90.9
2023-03-03T15:53:16.695Z,94
2023-03-03T16:08:16.956Z,95.2
2023-03-03T16:23:29.679Z,101.4
2023-03-03T16:38:19.971Z,105.8
2023-03-03T16:53:20.238Z,115.4
2023-03-03T17:08:19.359Z,158.1
2023-03-03T17:23:20.076Z,136.2
2023-03-03T17:38:20.756Z,136.6
2023-03-03T17:53:21.612Z,150.6
2023-03-03T18:08:21.846Z,146.2
2023-03-03T18:23:25.487Z,146.6
2023-03-03T18:38:23.349Z,147.2
2023-03-03T18:53:24.310Z,170.3
2023-03-03T19:08:25.269Z,203.9
2023-03-03T19:23:24.608Z,158.7
2023-03-03T19:38:28.229Z,157
2023-03-03T19:53:28.389Z,160.3
2023-03-03T20:08:30.350Z,148.4
2023-03-03T20:23:30.040Z,163.7
2023-03-03T20:38:31.061Z,156.9
2023-03-03T20:53:31.182Z,199
2023-03-03T21:08:48.011Z,177.2
2023-03-03T21:23:33.112Z,153.6
2023-03-03T21:38:40.190Z,176.7
2023-03-03T21:53:34.754Z,164.1
2023-03-03T22:08:34.250Z,165.6
2023-03-03T22:23:34.977Z,170.4
2023-03-03T22:38:35.513Z,169.5
2023-03-03T22:53:36.547Z,780.7
2023-03-03T23:00:49.125Z,538.9
2023-03-03T23:15:34.265Z,325.9
2023-03-03T23:30:34.487Z,343.8
2023-03-03T23:45:35.011Z,227.1
